createdAt,value
2019-01-02T00:00:47.395Z,90.50
2019-01-02T00:03:17.149Z,90.40
2019-01-02T00:05:47.552Z,89.60
2019-01-02T00:08:16.889Z,89.50
2019-01-02T00:10:46.442Z,89.30
2019-01-02T00:13:16.139Z,88.80
2019-01-02T00:15:46.421Z,88.30
2019-01-02T00:18:16.511Z,88.90
2019-01-02T00:20:45.836Z,88.30
2019-01-02T00:23:15.953Z,88.70
2019-01-02T00:25:45.780Z,88.60
2019-01-02T00:28:17.935Z,88.80
2019-01-02T00:30:47.501Z,88.70
2019-01-02T00:33:16.968Z,87.70
2019-01-02T00:36:02.120Z,87.00
2019-01-02T00:38:53.462Z,86.40
2019-01-02T00:41:23.239Z,86.30
2019-01-02T00:43:53.603Z,83.90
2019-01-02T00:46:26.265Z,83.80
2019-01-02T00:48:56.489Z,84.00
2019-01-02T00:51:27.844Z,83.80
2019-01-02T00:53:58.323Z,81.80
2019-01-02T00:56:27.795Z,81.70
2019-01-02T00:58:57.226Z,81.40
2019-01-02T01:01:27.534Z,80.20
2019-01-02T01:04:00.206Z,81.10
2019-01-02T01:06:30.791Z,79.00
2019-01-02T01:09:00.851Z,78.20
2019-01-02T01:11:30.644Z,77.20
2019-01-02T01:14:05.873Z,78.10
2019-01-02T01:16:37.327Z,77.90
2019-01-02T01:19:07.460Z,77.70
2019-01-02T01:21:37.079Z,77.60
2019-01-02T01:24:07.460Z,78.20
2019-01-02T01:26:37.686Z,78.40
2019-01-02T01:29:07.494Z,78.50
2019-01-02T01:31:37.182Z,78.00
2019-01-02T01:34:06.436Z,77.70
2019-01-02T01:36:36.635Z,76.90
2019-01-02T01:39:10.639Z,76.80
2019-01-02T01:41:40.289Z,76.70
2019-01-02T01:44:09.756Z,75.90
2019-01-02T01:46:39.296Z,74.90
2019-01-02T01:49:11.247Z,75.30
2019-01-02T01:51:41.065Z,74.60
2019-01-02T01:54:13.585Z,74.80
2019-01-02T01:56:44.700Z,74.40
2019-01-02T01:59:14.733Z,74.10
2019-01-02T02:01:44.517Z,74.50
2019-01-02T02:04:14.163Z,74.60
2019-01-02T02:06:44.109Z,74.30
2019-01-02T02:09:13.712Z,74.50
2019-01-02T02:11:43.976Z,76.60
2019-01-02T02:14:13.184Z,77.30
2019-01-02T02:16:42.781Z,75.40
2019-01-02T02:19:12.852Z,76.90
2019-01-02T02:21:43.554Z,76.90
2019-01-02T02:24:13.755Z,76.60
2019-01-02T02:26:43.376Z,75.90
2019-01-02T02:29:13.018Z,75.80
2019-01-02T02:31:42.811Z,75.80
2019-01-02T02:34:12.029Z,76.20
2019-01-02T02:36:41.479Z,75.50
2019-01-02T02:39:11.408Z,73.60
2019-01-02T02:41:41.307Z,74.10
2019-01-02T02:44:11.941Z,73.40
2019-01-02T02:46:43.142Z,74.20
2019-01-02T02:49:12.563Z,75.60
2019-01-02T02:51:46.251Z,76.10
2019-01-02T02:54:16.926Z,75.80
2019-01-02T02:56:46.622Z,77.70
2019-01-02T02:59:16.731Z,78.70
2019-01-02T03:01:46.752Z,80.10
2019-01-02T03:04:16.450Z,80.90
2019-01-02T03:06:46.698Z,78.00
2019-01-02T03:09:18.068Z,76.40
2019-01-02T03:11:47.621Z,77.60
2019-01-02T03:14:16.994Z,78.30
2019-01-02T03:16:47.278Z,78.00
2019-01-02T03:19:17.201Z,78.10
2019-01-02T03:22:13.001Z,77.80
2019-01-02T03:24:44.282Z,78.20
2019-01-02T03:27:16.663Z,78.90
2019-01-02T03:29:47.223Z,80.60
2019-01-02T03:32:18.709Z,82.00
2019-01-02T03:34:55.894Z,82.20
2019-01-02T03:37:26.292Z,82.40
2019-01-02T03:39:58.338Z,82.80
2019-01-02T03:42:34.352Z,83.10
2019-01-02T03:45:03.939Z,83.20
2019-01-02T03:47:36.157Z,82.90
2019-01-02T03:50:06.701Z,81.70
2019-01-02T03:52:39.134Z,82.20
2019-01-02T03:55:12.677Z,81.30
2019-01-02T03:57:44.509Z,80.70
2019-01-02T04:00:17.286Z,81.10
2019-01-02T04:02:48.328Z,80.70
2019-01-02T04:05:22.362Z,80.60
2019-01-02T04:08:04.781Z,80.50
2019-01-02T04:10:35.775Z,78.30
2019-01-02T04:13:06.183Z,78.10
2019-01-02T04:15:36.361Z,77.40
2019-01-02T04:18:06.580Z,78.80
2019-01-02T04:20:38.256Z,80.40
2019-01-02T04:23:08.428Z,81.40
2019-01-02T04:25:40.128Z,82.90
2019-01-02T04:28:12.838Z,82.90
2019-01-02T04:30:43.519Z,81.80
2019-01-02T04:33:14.112Z,82.00
2019-01-02T04:35:46.255Z,81.10
2019-01-02T04:38:16.365Z,81.70
2019-01-02T04:40:46.532Z,79.10
2019-01-02T04:43:17.437Z,78.20
2019-01-02T04:45:46.935Z,75.50
2019-01-02T04:48:16.938Z,76.10
2019-01-02T04:50:46.619Z,76.10
2019-01-02T04:53:16.776Z,75.70
2019-01-02T04:55:46.329Z,76.10
2019-01-02T04:58:16.268Z,77.00
2019-01-02T05:00:51.601Z,78.50
2019-01-02T05:03:30.797Z,79.60
2019-01-02T05:06:00.341Z,81.20
2019-01-02T05:08:30.431Z,81.50
2019-01-02T05:11:00.470Z,81.40
2019-01-02T05:13:29.856Z,81.00
2019-01-02T05:16:11.127Z,81.20
2019-01-02T05:18:42.384Z,80.70
2019-01-02T05:21:12.429Z,80.10
2019-01-02T05:23:42.387Z,80.00
2019-01-02T05:26:13.885Z,80.60
2019-01-02T05:28:49.460Z,80.10
2019-01-02T05:31:19.798Z,80.00
2019-01-02T05:33:48.728Z,79.80
2019-01-02T05:36:17.905Z,79.90
2019-01-02T05:38:49.637Z,78.70
2019-01-02T05:41:22.142Z,80.00
2019-01-02T05:44:05.067Z,80.00
2019-01-02T05:46:34.755Z,80.00
2019-01-02T05:49:05.146Z,79.90
2019-01-02T05:51:35.533Z,78.10
2019-01-02T05:54:05.921Z,77.20
2019-01-02T05:56:35.864Z,77.80
2019-01-02T05:59:09.924Z,76.40
2019-01-02T06:01:39.345Z,76.40
2019-01-02T06:04:09.257Z,76.20
2019-01-02T06:06:39.027Z,76.20
2019-01-02T06:09:10.591Z,77.10
2019-01-02T06:11:40.478Z,78.70
2019-01-02T06:14:14.375Z,82.10
2019-01-02T06:16:44.682Z,83.30
2019-01-02T06:19:14.645Z,84.60
2019-01-02T06:21:45.492Z,85.70
2019-01-02T06:24:15.485Z,85.90
2019-01-02T06:26:45.638Z,86.60
2019-01-02T06:29:15.648Z,86.80
2019-01-02T06:31:45.412Z,87.30
2019-01-02T06:34:15.930Z,86.70
2019-01-02T06:36:45.394Z,87.20
2019-01-02T06:39:15.191Z,87.30
2019-01-02T06:41:47.486Z,87.00
2019-01-02T06:44:17.755Z,87.50
2019-01-02T06:46:48.077Z,86.70
2019-01-02T06:49:18.338Z,86.90
2019-01-02T06:51:48.501Z,85.00
2019-01-02T06:54:22.971Z,85.90
2019-01-02T06:56:57.759Z,85.20
2019-01-02T06:59:29.779Z,84.70
2019-01-02T07:01:59.906Z,86.00
2019-01-02T07:04:33.338Z,83.80
2019-01-02T07:07:19.234Z,84.40
2019-01-02T07:09:49.203Z,82.80
2019-01-02T07:12:19.806Z,84.30
2019-01-02T07:15:11.687Z,82.90
2019-01-02T07:17:46.874Z,82.70
2019-01-02T07:20:33.418Z,82.10
2019-01-02T07:25:49.195Z,81.60
2019-01-02T07:28:36.053Z,82.40
2019-01-02T07:31:16.345Z,81.20
2019-01-02T07:33:52.025Z,80.70
2019-01-02T07:37:01.759Z,80.90
2019-01-02T07:39:56.590Z,81.60
2019-01-02T07:43:12.426Z,80.10
2019-01-02T07:46:29.427Z,82.40
2019-01-02T07:49:48.555Z,80.90
2019-01-02T07:53:21.747Z,80.30
2019-01-02T07:56:30.445Z,81.60
2019-01-02T07:59:52.483Z,82.50
2019-01-02T08:03:02.563Z,82.70
2019-01-02T08:06:02.041Z,84.00
2019-01-02T08:08:54.071Z,84.00
2019-01-02T08:11:37.326Z,84.00
2019-01-02T08:15:11.654Z,85.50
2019-01-02T08:18:17.299Z,83.60
2019-01-02T08:21:37.395Z,84.20
2019-01-02T08:24:42.320Z,83.70
2019-01-02T08:27:43.885Z,84.70
2019-01-02T08:30:41.448Z,84.70
2019-01-02T08:33:32.924Z,82.40
2019-01-02T08:36:46.257Z,83.20
2019-01-02T08:39:41.119Z,81.80
2019-01-02T08:42:54.773Z,83.50
2019-01-02T08:46:05.447Z,83.00
2019-01-02T08:49:10.478Z,82.50
2019-01-02T08:52:12.637Z,82.10
2019-01-02T08:55:21.841Z,83.90
2019-01-02T08:58:20.638Z,82.50
2019-01-02T09:01:24.849Z,84.30
2019-01-02T09:04:19.515Z,84.50
2019-01-02T09:07:41.763Z,83.70
2019-01-02T09:10:46.823Z,82.20
2019-01-02T09:13:42.099Z,81.40
2019-01-02T09:16:49.294Z,80.80
2019-01-02T09:19:55.392Z,78.70
2019-01-02T09:23:16.861Z,81.30
2019-01-02T09:26:28.529Z,80.10
2019-01-02T09:29:26.175Z,82.50
2019-01-02T09:32:48.337Z,82.00
2019-01-02T09:35:45.237Z,84.10
2019-01-02T09:38:48.566Z,83.40
2019-01-02T09:41:55.197Z,83.80
2019-01-02T09:45:07.503Z,84.90
2019-01-02T09:48:15.178Z,81.80
2019-01-02T09:51:35.448Z,83.10
2019-01-02T09:54:31.002Z,80.30
2019-01-02T09:57:41.099Z,81.30
2019-01-02T10:00:48.425Z,81.50
2019-01-02T10:03:55.234Z,80.20
2019-01-02T10:07:11.171Z,78.40
2019-01-02T10:10:17.107Z,78.80
2019-01-02T10:13:35.497Z,79.20
2019-01-02T10:16:31.365Z,78.60
2019-01-02T10:19:44.604Z,79.30
2019-01-02T10:23:10.347Z,79.50
2019-01-02T10:26:17.164Z,79.20
2019-01-02T10:29:32.545Z,79.40
2019-01-02T10:32:26.449Z,76.50
2019-01-02T10:35:40.223Z,76.80
2019-01-02T10:38:54.078Z,76.90
2019-01-02T10:41:49.674Z,76.60
2019-01-02T10:44:47.982Z,77.10
2019-01-02T10:47:44.108Z,77.40
2019-01-02T10:50:43.016Z,78.10
2019-01-02T10:53:42.208Z,76.90
2019-01-02T10:56:45.369Z,77.20
2019-01-02T10:59:46.356Z,75.80
2019-01-02T11:03:22.675Z,75.70
2019-01-02T11:06:26.448Z,75.00
2019-01-02T11:09:29.170Z,75.00
2019-01-02T11:12:42.358Z,73.50
2019-01-02T11:15:50.868Z,72.70
2019-01-02T11:18:41.392Z,75.00
2019-01-02T11:21:57.755Z,74.10
2019-01-02T11:25:16.991Z,72.90
2019-01-02T11:28:45.314Z,71.90
2019-01-02T11:31:52.366Z,73.60
2019-01-02T11:35:11.604Z,72.70
2019-01-02T11:38:10.049Z,73.90
2019-01-02T11:41:33.628Z,72.70
2019-01-02T11:44:54.364Z,74.60
2019-01-02T11:47:24.294Z,75.30
2019-01-02T11:49:53.523Z,73.60
2019-01-02T11:52:23.399Z,75.10
2019-01-02T11:54:53.189Z,72.90
2019-01-02T11:57:22.611Z,73.70
2019-01-02T11:59:51.982Z,73.60
2019-01-02T12:02:21.879Z,73.60
2019-01-02T12:04:52.297Z,73.10
2019-01-02T12:07:22.183Z,72.50
2019-01-02T12:09:52.124Z,71.50
2019-01-02T12:12:21.753Z,71.90
2019-01-02T12:14:51.279Z,72.30
2019-01-02T12:17:20.865Z,70.40
2019-01-02T12:19:49.972Z,70.30
2019-01-02T12:22:21.469Z,69.80
2019-01-02T12:24:50.749Z,70.30
2019-01-02T12:27:20.536Z,70.40
2019-01-02T12:29:50.442Z,70.90
2019-01-02T12:32:20.477Z,71.90
2019-01-02T12:34:49.981Z,70.90
2019-01-02T12:37:20.388Z,70.90
2019-01-02T12:39:49.579Z,69.70
2019-01-02T12:42:19.168Z,70.60
2019-01-02T12:44:48.959Z,68.70
2019-01-02T12:47:18.347Z,70.00
2019-01-02T12:49:48.112Z,69.40
2019-01-02T12:52:17.520Z,69.10
2019-01-02T12:54:49.421Z,70.10
2019-01-02T12:57:18.594Z,70.40
2019-01-02T12:59:48.124Z,69.40
2019-01-02T13:02:32.449Z,68.40
2019-01-02T13:05:40.229Z,68.60
2019-01-02T13:08:44.915Z,69.20
2019-01-02T13:11:45.617Z,70.00
2019-01-02T13:15:00.610Z,75.60
2019-01-02T13:18:07.775Z,78.40
2019-01-02T13:21:02.086Z,80.60
2019-01-02T13:23:39.714Z,82.10
2019-01-02T13:26:14.732Z,84.10
2019-01-02T13:29:22.880Z,86.10
2019-01-02T13:32:00.879Z,87.50
2019-01-02T13:35:09.653Z,89.60
2019-01-02T13:38:09.458Z,89.10
2019-01-02T13:41:34.600Z,85.70
2019-01-02T13:44:42.482Z,86.50
2019-01-02T13:47:51.496Z,87.90
2019-01-02T13:50:54.974Z,85.60
2019-01-02T13:53:25.100Z,85.70
2019-01-02T13:55:54.619Z,84.00
2019-01-02T13:58:24.672Z,83.20
2019-01-02T14:00:56.491Z,82.80
2019-01-02T14:03:25.991Z,84.40
2019-01-02T14:05:55.780Z,84.00
2019-01-02T14:08:25.522Z,82.90
2019-01-02T14:10:56.958Z,83.80
2019-01-02T14:13:26.524Z,83.00
2019-01-02T14:15:56.001Z,82.00
2019-01-02T14:18:28.911Z,82.30
2019-01-02T14:20:58.447Z,80.60
2019-01-02T14:23:31.241Z,80.10
2019-01-02T14:26:00.853Z,79.20
2019-01-02T14:28:30.143Z,79.10
2019-01-02T14:31:05.707Z,78.80
2019-01-02T14:33:35.732Z,80.50
2019-01-02T14:36:07.514Z,80.40
2019-01-02T14:38:37.064Z,78.00
2019-01-02T14:41:06.670Z,77.80
2019-01-02T14:43:35.786Z,80.40
2019-01-02T14:46:07.177Z,79.00
2019-01-02T14:48:37.662Z,79.20
2019-01-02T14:51:07.172Z,78.00
2019-01-02T14:53:37.017Z,76.70
2019-01-02T14:56:06.535Z,76.90
2019-01-02T14:58:36.393Z,77.00
2019-01-02T15:01:05.915Z,77.20
2019-01-02T15:03:35.134Z,77.30
2019-01-02T15:06:08.074Z,76.30
2019-01-02T15:08:37.961Z,78.10
2019-01-02T15:11:08.446Z,80.40
2019-01-02T15:13:37.976Z,78.30
2019-01-02T15:16:07.087Z,78.30
2019-01-02T15:18:36.575Z,79.20
2019-01-02T15:21:07.159Z,79.80
2019-01-02T15:23:36.365Z,82.90
2019-01-02T15:26:05.787Z,83.10
2019-01-02T15:28:35.498Z,85.20
2019-01-02T15:31:05.954Z,86.70
2019-01-02T15:33:36.725Z,84.80
2019-01-02T15:36:06.456Z,86.20
2019-01-02T15:38:43.608Z,86.30
2019-01-02T15:41:14.568Z,85.50
2019-01-02T15:43:44.432Z,85.00
2019-01-02T15:46:14.191Z,83.80
2019-01-02T15:48:43.632Z,82.90
2019-01-02T15:51:13.176Z,81.20
2019-01-02T15:53:44.336Z,81.00
2019-01-02T15:56:14.038Z,79.30
2019-01-02T15:58:43.463Z,78.90
2019-01-02T16:01:13.246Z,78.00
2019-01-02T16:03:42.618Z,77.90
2019-01-02T16:06:12.133Z,78.30
2019-01-02T16:08:42.117Z,79.90
2019-01-02T16:11:14.201Z,85.50
2019-01-02T16:13:44.484Z,89.70
2019-01-02T16:16:14.831Z,89.20
2019-01-02T16:18:44.378Z,87.10
2019-01-02T16:21:13.464Z,87.20
2019-01-02T16:23:43.242Z,87.30
2019-01-02T16:26:13.132Z,86.70
2019-01-02T16:28:42.469Z,86.40
2019-01-02T16:31:12.539Z,87.20
2019-01-02T16:33:41.989Z,88.80
2019-01-02T16:36:11.531Z,89.00
2019-01-02T16:38:40.928Z,86.00
2019-01-02T16:41:10.114Z,84.90
2019-01-02T16:43:40.712Z,84.30
2019-01-02T16:46:10.784Z,83.60
2019-01-02T16:48:41.658Z,88.00
2019-01-02T16:51:14.774Z,83.60
2019-01-02T16:53:45.238Z,87.10
2019-01-02T16:56:14.720Z,84.80
2019-01-02T16:58:45.030Z,87.80
2019-01-02T17:01:15.281Z,86.00
2019-01-02T17:03:45.060Z,85.40
2019-01-02T17:06:14.452Z,82.50
2019-01-02T17:08:44.512Z,86.00
2019-01-02T17:11:14.110Z,81.80
2019-01-02T17:13:43.770Z,85.20
2019-01-02T17:16:13.277Z,84.60
2019-01-02T17:18:42.957Z,83.90
2019-01-02T17:21:12.013Z,83.60
2019-01-02T17:23:43.985Z,83.70
2019-01-02T17:26:14.852Z,81.10
2019-01-02T17:28:44.992Z,82.80
2019-01-02T17:31:16.242Z,84.10
2019-01-02T17:33:46.868Z,84.00
2019-01-02T17:36:16.755Z,80.40
2019-01-02T17:38:45.975Z,80.00
2019-01-02T17:41:15.851Z,82.10
2019-01-02T17:43:46.501Z,83.70
2019-01-02T17:46:17.598Z,85.00
2019-01-02T17:48:47.500Z,79.60
2019-01-02T17:51:17.045Z,85.70
2019-01-02T17:53:47.553Z,83.60
2019-01-02T17:56:17.190Z,80.40
2019-01-02T17:58:47.189Z,79.30
2019-01-02T18:01:16.455Z,80.80
2019-01-02T18:03:46.271Z,82.90
2019-01-02T18:06:15.795Z,82.00
2019-01-02T18:08:45.168Z,82.00
2019-01-02T18:11:15.609Z,78.20
2019-01-02T18:13:45.022Z,85.40
2019-01-02T18:16:16.312Z,80.50
2019-01-02T18:18:50.469Z,81.50
2019-01-02T18:21:22.919Z,85.90
2019-01-02T18:23:52.427Z,87.60
2019-01-02T18:26:22.854Z,85.20
2019-01-02T18:28:52.335Z,84.30
2019-01-02T18:31:22.238Z,82.30
2019-01-02T18:33:51.494Z,86.80
2019-01-02T18:36:21.245Z,84.70
2019-01-02T18:38:50.971Z,87.30
2019-01-02T18:41:20.583Z,85.30
2019-01-02T18:43:52.405Z,88.10
2019-01-02T18:46:23.979Z,89.00
2019-01-02T18:48:54.251Z,88.40
2019-01-02T18:51:23.753Z,86.90
2019-01-02T18:53:52.933Z,89.20
2019-01-02T18:56:22.482Z,89.30
2019-01-02T18:58:52.498Z,89.10
2019-01-02T19:01:21.889Z,87.90
2019-01-02T19:03:51.042Z,87.90
2019-01-02T19:06:20.195Z,87.40
2019-01-02T19:08:49.353Z,88.30
2019-01-02T19:11:19.647Z,88.50
2019-01-02T19:13:49.322Z,88.40
2019-01-02T19:16:21.613Z,82.90
2019-01-02T19:18:50.042Z,86.00
2019-01-02T19:21:19.124Z,87.60
2019-01-02T19:23:48.517Z,85.50
2019-01-02T19:26:18.211Z,85.60
2019-01-02T19:28:49.387Z,86.60
2019-01-02T19:31:19.501Z,85.60
2019-01-02T19:33:49.823Z,84.30
2019-01-02T19:36:19.541Z,84.10
2019-01-02T19:38:49.401Z,80.70
2019-01-02T19:41:19.125Z,86.30
2019-01-02T19:43:49.023Z,79.70
2019-01-02T19:46:18.840Z,81.80
2019-01-02T19:48:48.600Z,79.80
2019-01-02T19:51:20.458Z,81.50
2019-01-02T19:53:49.625Z,83.80
2019-01-02T19:56:18.919Z,82.00
2019-01-02T19:58:48.283Z,76.60
2019-01-02T20:01:17.965Z,81.00
2019-01-02T20:03:47.486Z,77.50
2019-01-02T20:06:17.478Z,77.00
2019-01-02T20:08:46.686Z,80.60
2019-01-02T20:11:17.784Z,77.80
2019-01-02T20:13:47.586Z,80.90
2019-01-02T20:16:17.498Z,84.10
2019-01-02T20:18:46.712Z,81.20
2019-01-02T20:21:16.723Z,78.20
2019-01-02T20:23:45.945Z,73.30
2019-01-02T20:26:15.690Z,73.00
2019-01-02T20:28:45.045Z,78.00
2019-01-02T20:31:15.106Z,77.30
2019-01-02T20:33:45.661Z,76.40
2019-01-02T20:36:15.152Z,75.70
2019-01-02T20:38:45.301Z,78.70
2019-01-02T20:41:14.984Z,75.10
2019-01-02T20:43:44.286Z,76.90
2019-01-02T20:46:13.949Z,72.50
2019-01-02T20:48:43.149Z,76.00
2019-01-02T20:51:12.772Z,72.10
2019-01-02T20:53:42.282Z,74.90
2019-01-02T20:56:12.032Z,73.00
2019-01-02T20:58:41.818Z,70.90
2019-01-02T21:01:11.364Z,70.10
2019-01-02T21:03:41.906Z,71.00
2019-01-02T21:06:11.743Z,70.20
2019-01-02T21:08:42.224Z,71.60
2019-01-02T21:11:11.812Z,74.40
2019-01-02T21:13:41.716Z,75.00
2019-01-02T21:16:11.061Z,72.20
2019-01-02T21:18:41.443Z,74.30
2019-01-02T21:21:11.075Z,71.80
2019-01-02T21:23:41.956Z,76.40
2019-01-02T21:26:13.858Z,73.40
2019-01-02T21:28:43.975Z,73.10
2019-01-02T21:31:15.148Z,72.20
2019-01-02T21:33:45.260Z,73.70
2019-01-02T21:36:15.618Z,71.60
2019-01-02T21:38:45.254Z,72.80
2019-01-02T21:41:15.002Z,75.30
2019-01-02T21:43:46.885Z,74.70
2019-01-02T21:46:18.020Z,74.90
2019-01-02T21:48:58.161Z,76.00
2019-01-02T21:51:29.477Z,73.20
2019-01-02T21:54:11.661Z,75.60
2019-01-02T21:56:41.196Z,75.20
2019-01-02T21:59:11.355Z,75.40
2019-01-02T22:01:41.155Z,75.70
2019-01-02T22:04:10.615Z,74.90
2019-01-02T22:06:40.058Z,73.10
2019-01-02T22:09:09.769Z,73.00
2019-01-02T22:11:39.369Z,73.30
2019-01-02T22:14:10.964Z,74.50
2019-01-02T22:16:40.997Z,71.80
2019-01-02T22:19:10.350Z,76.60
2019-01-02T22:21:40.334Z,77.10
2019-01-02T22:24:09.509Z,74.50
2019-01-02T22:26:41.939Z,72.70
2019-01-02T22:29:16.825Z,75.60
2019-01-02T22:31:47.591Z,72.30
2019-01-02T22:34:31.865Z,74.90
2019-01-02T22:37:03.471Z,77.60
2019-01-02T22:39:33.223Z,73.60
2019-01-02T22:42:05.868Z,75.00
2019-01-02T22:44:39.543Z,71.80
2019-01-02T22:47:10.350Z,73.70
2019-01-02T22:49:40.639Z,71.40
2019-01-02T22:52:10.157Z,73.90
2019-01-02T22:54:39.725Z,74.20
2019-01-02T22:57:14.397Z,74.30
2019-01-02T22:59:43.717Z,72.10
2019-01-02T23:02:46.579Z,73.60
2019-01-02T23:05:53.187Z,71.90
2019-01-02T23:08:38.544Z,75.40
2019-01-02T23:11:33.752Z,72.10
2019-01-02T23:14:20.362Z,72.70
2019-01-02T23:17:12.423Z,72.80
2019-01-02T23:20:14.969Z,73.20
2019-01-02T23:23:06.497Z,74.10
2019-01-02T23:25:53.782Z,69.40
2019-01-02T23:28:42.154Z,71.10
2019-01-02T23:31:29.536Z,72.00
2019-01-02T23:34:28.367Z,68.90
2019-01-02T23:37:28.655Z,69.90
2019-01-02T23:40:18.032Z,70.50
2019-01-02T23:43:06.971Z,68.80
2019-01-02T23:45:54.295Z,72.60
2019-01-02T23:48:41.602Z,69.20
2019-01-02T23:51:45.930Z,70.70
2019-01-02T23:54:34.830Z,70.90
2019-01-02T23:57:22.069Z,72.10
